createdAt,value
2022-11-18T00:01:21.356Z,1.87
2022-11-18T00:03:49.249Z,1.90
2022-11-18T00:06:28.347Z,1.70
2022-11-18T00:08:56.339Z,1.60
2022-11-18T00:11:44.229Z,1.73
2022-11-18T00:14:18.979Z,1.57
2022-11-18T00:17:07.349Z,1.70
2022-11-18T00:19:37.980Z,1.87
2022-11-18T00:22:08.026Z,1.60
2022-11-18T00:24:35.310Z,1.70
2022-11-18T00:27:02.261Z,1.90
2022-11-18T00:29:30.921Z,1.77
2022-11-18T00:31:58.556Z,1.70
2022-11-18T00:34:25.961Z,1.50
2022-11-18T00:36:53.165Z,1.60
2022-11-18T00:39:21.508Z,1.83
2022-11-18T00:42:08.296Z,1.70
2022-11-18T00:44:35.613Z,1.57
2022-11-18T00:47:03.133Z,1.73
2022-11-18T00:49:30.309Z,1.50
2022-11-18T00:51:57.551Z,1.60
2022-11-18T00:54:24.677Z,1.30
2022-11-18T00:56:51.756Z,1.67
2022-11-18T00:59:18.936Z,1.50
2022-11-18T01:01:46.456Z,1.50
2022-11-18T01:04:13.588Z,1.80
2022-11-18T01:06:41.255Z,1.50
2022-11-18T01:09:08.387Z,1.37
2022-11-18T01:11:54.023Z,1.50
2022-11-18T01:14:21.568Z,1.40
2022-11-18T01:16:51.407Z,1.63
2022-11-18T01:19:19.591Z,1.20
2022-11-18T01:21:47.024Z,1.40
2022-11-18T01:24:14.239Z,1.40
2022-11-18T01:26:41.510Z,1.27
2022-11-18T01:29:08.753Z,1.30
2022-11-18T01:31:35.765Z,1.40
2022-11-18T01:34:03.886Z,1.30
2022-11-18T01:36:31.362Z,1.50
2022-11-18T01:38:58.409Z,1.20
2022-11-18T01:41:27.189Z,1.10
2022-11-18T01:44:25.895Z,1.33
2022-11-18T01:46:52.980Z,1.20
2022-11-18T01:49:20.418Z,1.27
2022-11-18T01:51:55.699Z,1.20
2022-11-18T01:54:33.112Z,1.30
2022-11-18T01:57:08.439Z,1.23
2022-11-18T01:59:39.853Z,1.03
2022-11-18T02:02:11.587Z,1.10
2022-11-18T02:04:42.055Z,1.83
2022-11-18T02:07:10.511Z,1.40
2022-11-18T02:09:39.166Z,1.33
2022-11-18T02:12:08.154Z,1.20
2022-11-18T02:14:40.339Z,1.33
2022-11-18T02:17:22.511Z,1.07
2022-11-18T02:20:07.412Z,1.77
2022-11-18T02:23:25.769Z,1.00
2022-11-18T02:26:29.589Z,1.17
2022-11-18T02:29:33.760Z,1.40
2022-11-18T02:32:11.571Z,1.20
2022-11-18T02:35:19.305Z,1.30
2022-11-18T02:38:03.467Z,1.40
2022-11-18T02:40:35.981Z,1.60
2022-11-18T02:43:16.037Z,1.20
2022-11-18T02:45:49.573Z,1.10
2022-11-18T02:48:20.177Z,1.07
2022-11-18T02:50:51.288Z,1.10
2022-11-18T02:53:21.643Z,1.43
2022-11-18T02:55:49.849Z,1.37
2022-11-18T02:58:20.727Z,1.40
2022-11-18T03:01:01.486Z,1.20
2022-11-18T03:03:35.261Z,1.27
2022-11-18T03:06:41.919Z,1.20
2022-11-18T03:09:25.076Z,1.30
2022-11-18T03:12:25.101Z,1.43
2022-11-18T03:15:15.184Z,1.10
2022-11-18T03:18:05.153Z,1.40
2022-11-18T03:21:01.475Z,1.50
2022-11-18T03:23:42.989Z,1.50
2022-11-18T03:26:11.942Z,1.53
2022-11-18T03:28:38.740Z,1.40
2022-11-18T03:31:13.816Z,1.40
2022-11-18T03:34:02.011Z,1.60
2022-11-18T03:36:37.182Z,1.30
2022-11-18T03:39:08.784Z,1.43
2022-11-18T03:41:43.534Z,1.60
2022-11-18T03:44:33.781Z,1.73
2022-11-18T03:47:17.538Z,1.37
2022-11-18T03:49:54.815Z,1.40
2022-11-18T03:52:28.477Z,1.20
2022-11-18T03:54:59.952Z,1.53
2022-11-18T03:57:56.177Z,1.43
2022-11-18T04:00:23.760Z,1.30
2022-11-18T04:02:51.317Z,1.37
2022-11-18T04:05:19.486Z,1.43
2022-11-18T04:08:02.709Z,1.30
2022-11-18T04:10:33.954Z,1.63
2022-11-18T04:13:29.550Z,1.70
2022-11-18T04:15:56.786Z,1.10
2022-11-18T04:18:23.969Z,1.70
2022-11-18T04:20:50.914Z,1.80
2022-11-18T04:23:17.895Z,1.67
2022-11-18T04:25:44.863Z,1.43
2022-11-18T04:28:11.897Z,1.70
2022-11-18T04:30:38.919Z,1.60
2022-11-18T04:33:06.002Z,1.33
2022-11-18T04:35:32.944Z,1.50
2022-11-18T04:37:59.894Z,1.70
2022-11-18T04:40:26.949Z,1.40
2022-11-18T04:42:54.050Z,1.60
2022-11-18T04:45:21.053Z,1.40
2022-11-18T04:47:48.053Z,1.60
2022-11-18T04:50:15.122Z,1.80
2022-11-18T04:52:42.437Z,1.57
2022-11-18T04:55:09.530Z,1.73
2022-11-18T04:57:36.469Z,1.73
2022-11-18T05:00:05.696Z,1.60
2022-11-18T05:02:32.720Z,1.40
2022-11-18T05:04:59.661Z,1.60
2022-11-18T05:07:26.649Z,1.60
2022-11-18T05:09:53.686Z,1.90
2022-11-18T05:12:39.539Z,1.60
2022-11-18T05:15:07.419Z,1.73
2022-11-18T05:17:36.091Z,2.73
2022-11-18T05:20:03.348Z,2.00
2022-11-18T05:22:30.349Z,2.10
2022-11-18T05:24:57.331Z,1.60
2022-11-18T05:27:24.293Z,1.70
2022-11-18T05:29:51.350Z,2.07
2022-11-18T05:32:21.381Z,1.90
2022-11-18T05:34:48.361Z,1.70
2022-11-18T05:37:15.572Z,1.97
2022-11-18T05:39:42.572Z,2.07
2022-11-18T05:42:29.522Z,2.00
2022-11-18T05:44:58.730Z,1.73
2022-11-18T05:47:27.541Z,1.97
2022-11-18T05:49:54.589Z,1.63
2022-11-18T05:52:21.573Z,1.87
2022-11-18T05:54:50.841Z,2.23
2022-11-18T05:57:17.948Z,2.27
2022-11-18T05:59:45.053Z,2.00
2022-11-18T06:02:21.104Z,2.13
2022-11-18T06:04:59.735Z,2.37
2022-11-18T06:07:35.736Z,2.40
2022-11-18T06:10:05.961Z,2.20
2022-11-18T06:12:43.213Z,2.00
2022-11-18T06:15:42.895Z,2.50
2022-11-18T06:18:25.519Z,2.13
2022-11-18T06:20:59.928Z,2.10
2022-11-18T06:23:30.921Z,2.03
2022-11-18T06:25:58.093Z,2.00
2022-11-18T06:28:25.700Z,2.30
2022-11-18T06:30:52.634Z,2.37
2022-11-18T06:33:19.602Z,1.93
2022-11-18T06:35:46.582Z,1.90
2022-11-18T06:38:13.682Z,2.00
2022-11-18T06:40:44.669Z,2.53
2022-11-18T06:43:31.387Z,2.47
2022-11-18T06:46:21.799Z,2.30
2022-11-18T06:48:49.146Z,2.30
2022-11-18T06:51:16.340Z,2.13
2022-11-18T06:53:43.531Z,2.30
2022-11-18T06:56:13.923Z,2.47
2022-11-18T06:58:40.934Z,2.60
2022-11-18T07:01:22.503Z,2.67
2022-11-18T07:03:50.155Z,2.57
2022-11-18T07:06:24.200Z,2.53
2022-11-18T07:08:52.479Z,2.43
2022-11-18T07:11:26.013Z,2.47
2022-11-18T07:13:53.651Z,2.77
2022-11-18T07:16:24.169Z,2.97
2022-11-18T07:18:53.432Z,2.67
2022-11-18T07:21:27.032Z,2.53
2022-11-18T07:23:57.817Z,2.70
2022-11-18T07:26:25.189Z,2.60
2022-11-18T07:28:53.682Z,2.87
2022-11-18T07:31:21.467Z,2.33
2022-11-18T07:33:49.418Z,2.60
2022-11-18T07:36:20.627Z,3.27
2022-11-18T07:38:48.433Z,2.40
2022-11-18T07:41:25.046Z,2.60
2022-11-18T07:43:59.019Z,2.73
2022-11-18T07:46:34.092Z,2.37
2022-11-18T07:49:04.882Z,2.73
2022-11-18T07:51:36.251Z,3.13
2022-11-18T07:54:09.213Z,2.73
2022-11-18T07:56:36.371Z,2.90
2022-11-18T07:59:05.050Z,2.80
2022-11-18T08:01:32.509Z,3.10
2022-11-18T08:04:10.584Z,2.60
2022-11-18T08:06:37.903Z,2.73
2022-11-18T08:09:06.797Z,2.63
2022-11-18T08:11:34.538Z,2.47
2022-11-18T08:14:01.856Z,2.40
2022-11-18T08:16:29.499Z,2.60
2022-11-18T08:18:58.379Z,2.67
2022-11-18T08:21:25.370Z,2.47
2022-11-18T08:23:57.810Z,2.70
2022-11-18T08:26:25.787Z,2.43
2022-11-18T08:28:53.423Z,2.60
2022-11-18T08:31:25.369Z,2.77
2022-11-18T08:34:07.783Z,2.50
2022-11-18T08:36:38.044Z,2.57
2022-11-18T08:39:08.828Z,2.60
2022-11-18T08:41:43.808Z,2.30
2022-11-18T08:44:15.136Z,2.47
2022-11-18T08:46:45.918Z,2.20
2022-11-18T08:49:13.095Z,2.57
2022-11-18T08:51:40.212Z,2.50
2022-11-18T08:54:07.322Z,2.20
2022-11-18T08:56:34.388Z,2.47
2022-11-18T08:59:01.413Z,2.70
2022-11-18T09:01:28.568Z,2.63
2022-11-18T09:03:55.944Z,2.43
2022-11-18T09:06:26.907Z,2.40
2022-11-18T09:08:54.558Z,2.23
2022-11-18T09:11:27.037Z,2.77
2022-11-18T09:16:46.437Z,2.03
2022-11-18T09:22:04.742Z,2.20
2022-11-18T09:24:33.149Z,2.40
2022-11-18T09:27:05.056Z,2.33
2022-11-18T09:29:33.009Z,2.97
2022-11-18T09:32:02.071Z,3.23
2022-11-18T09:34:29.505Z,2.80
2022-11-18T09:36:56.927Z,2.60
2022-11-18T09:39:25.453Z,2.17
2022-11-18T09:42:49.008Z,2.37
2022-11-18T09:45:38.711Z,2.30
2022-11-18T09:48:41.968Z,2.80
2022-11-18T09:51:11.789Z,2.63
2022-11-18T09:53:44.110Z,3.03
2022-11-18T09:56:16.733Z,2.47
2022-11-18T09:58:45.199Z,2.20
2022-11-18T10:01:18.072Z,2.80
2022-11-18T10:03:45.852Z,2.60
2022-11-18T10:06:26.634Z,2.73
2022-11-18T10:09:12.573Z,2.20
2022-11-18T10:12:16.336Z,2.53
2022-11-18T10:15:16.903Z,1.90
2022-11-18T10:18:59.302Z,2.27
2022-11-18T10:21:52.001Z,2.50
2022-11-18T10:24:21.653Z,1.95
2022-11-18T10:26:56.684Z,2.90
2022-11-18T10:29:23.821Z,2.50
2022-11-18T10:32:12.427Z,2.20
2022-11-18T10:34:57.921Z,2.40
2022-11-18T10:40:27.405Z,2.00
2022-11-18T10:42:55.377Z,2.10
2022-11-18T10:45:22.666Z,2.28
2022-11-18T10:48:09.508Z,2.20
2022-11-18T10:50:39.741Z,2.28
2022-11-18T10:53:30.338Z,1.75
2022-11-18T10:56:28.767Z,2.22
2022-11-18T10:58:55.828Z,2.53
2022-11-18T11:01:27.684Z,2.08
2022-11-18T11:04:20.343Z,2.65
2022-11-18T11:06:47.453Z,2.10
2022-11-18T11:09:14.317Z,2.70
2022-11-18T11:12:17.988Z,2.10
2022-11-18T11:14:53.230Z,2.13
2022-11-18T11:17:43.267Z,2.20
2022-11-18T11:20:17.387Z,2.05
2022-11-18T11:22:45.923Z,2.25
2022-11-18T11:25:28.941Z,2.28
2022-11-18T11:28:19.199Z,2.78
2022-11-18T11:31:12.743Z,2.63
2022-11-18T11:34:19.353Z,2.20
2022-11-18T11:37:24.778Z,2.95
2022-11-18T11:40:24.448Z,2.65
2022-11-18T11:43:50.328Z,2.40
2022-11-18T11:47:21.013Z,2.47
2022-11-18T11:49:54.207Z,2.42
2022-11-18T11:52:57.455Z,2.70
2022-11-18T11:55:24.423Z,2.20
2022-11-18T11:58:38.090Z,2.72
2022-11-18T12:01:05.113Z,2.78
2022-11-18T12:03:52.347Z,3.40
2022-11-18T12:06:20.287Z,2.50
2022-11-18T12:09:19.956Z,2.40
2022-11-18T12:12:34.964Z,2.50
2022-11-18T12:15:43.473Z,2.13
2022-11-18T12:18:37.736Z,2.30
2022-11-18T12:21:04.910Z,2.13
2022-11-18T12:23:33.910Z,2.50
2022-11-18T12:26:05.854Z,2.47
2022-11-18T12:28:42.909Z,1.75
2022-11-18T12:31:18.864Z,2.20
2022-11-18T12:33:55.308Z,1.92
2022-11-18T12:36:42.387Z,1.95
2022-11-18T12:39:24.912Z,2.08
2022-11-18T12:42:13.566Z,2.13
2022-11-18T12:44:42.464Z,1.95
2022-11-18T12:47:14.647Z,2.47
2022-11-18T12:49:44.699Z,1.90
2022-11-18T12:52:30.047Z,2.00
2022-11-18T12:55:22.637Z,1.58
2022-11-18T12:57:49.728Z,2.00
2022-11-18T13:00:31.449Z,1.65
2022-11-18T13:03:01.722Z,1.65
2022-11-18T13:05:36.095Z,1.53
2022-11-18T13:08:13.751Z,1.98
2022-11-18T13:11:19.189Z,1.55
2022-11-18T13:13:46.708Z,1.83
2022-11-18T13:16:43.356Z,2.00
2022-11-18T13:19:20.889Z,1.58
2022-11-18T13:22:17.373Z,1.48
2022-11-18T13:24:52.701Z,1.45
2022-11-18T13:27:49.963Z,1.73
2022-11-18T13:30:18.201Z,1.83
2022-11-18T13:32:47.795Z,1.60
2022-11-18T13:35:25.665Z,1.83
2022-11-18T13:37:59.972Z,2.08
2022-11-18T13:40:32.205Z,1.75
2022-11-18T13:42:59.210Z,1.60
2022-11-18T13:45:28.414Z,1.70
2022-11-18T13:48:12.177Z,1.52
2022-11-18T13:50:55.057Z,2.17
2022-11-18T13:53:37.055Z,1.70
2022-11-18T13:56:05.294Z,1.67
2022-11-18T13:59:02.520Z,1.60
2022-11-18T14:01:30.327Z,1.85
2022-11-18T14:04:03.017Z,1.60
2022-11-18T14:06:39.166Z,1.60
2022-11-18T14:09:28.766Z,2.05
2022-11-18T14:12:23.563Z,1.70
2022-11-18T14:14:50.647Z,1.75
2022-11-18T14:17:23.127Z,1.70
2022-11-18T14:20:07.600Z,1.90
2022-11-18T14:22:34.687Z,1.70
2022-11-18T14:25:22.702Z,1.67
2022-11-18T14:27:58.793Z,1.90
2022-11-18T14:30:37.011Z,1.60
2022-11-18T14:33:23.175Z,2.00
2022-11-18T14:36:16.298Z,2.60
2022-11-18T14:39:19.335Z,3.00
2022-11-18T14:41:47.490Z,3.67
2022-11-18T14:44:15.362Z,2.40
2022-11-18T14:46:49.900Z,2.73
2022-11-18T14:49:24.137Z,2.57
2022-11-18T14:51:53.104Z,2.13
2022-11-18T14:54:26.868Z,2.57
2022-11-18T14:57:04.377Z,2.60
2022-11-18T14:59:31.926Z,2.40
2022-11-18T15:01:59.497Z,2.73
2022-11-18T15:04:26.992Z,2.60
2022-11-18T15:06:54.361Z,2.70
2022-11-18T15:09:21.804Z,2.53
2022-11-18T15:11:48.863Z,3.17
2022-11-18T15:14:16.058Z,3.80
2022-11-18T15:16:43.308Z,3.87
2022-11-18T15:19:15.891Z,4.20
2022-11-18T15:21:45.396Z,4.10
2022-11-18T15:24:12.729Z,4.00
2022-11-18T15:26:44.758Z,3.63
2022-11-18T15:29:21.814Z,3.87
2022-11-18T15:31:49.516Z,4.97
2022-11-18T15:34:19.011Z,4.27
2022-11-18T15:36:46.984Z,3.80
2022-11-18T15:39:14.095Z,4.40
2022-11-18T15:41:43.088Z,3.70
2022-11-18T15:44:12.001Z,4.07
2022-11-18T15:46:39.539Z,4.40
2022-11-18T15:49:09.450Z,3.47
2022-11-18T15:51:37.043Z,3.93
2022-11-18T15:54:04.324Z,4.20
2022-11-18T15:56:33.056Z,3.70
2022-11-18T15:59:02.350Z,3.90
2022-11-18T16:01:32.979Z,3.63
2022-11-18T16:04:00.417Z,4.03
2022-11-18T16:06:27.645Z,4.07
2022-11-18T16:08:59.904Z,3.77
2022-11-18T16:11:48.169Z,4.20
2022-11-18T16:14:18.575Z,4.10
2022-11-18T16:16:48.216Z,3.60
2022-11-18T16:19:19.831Z,4.10
2022-11-18T16:21:50.660Z,4.20
2022-11-18T16:24:22.129Z,4.00
2022-11-18T16:26:49.761Z,4.50
2022-11-18T16:29:18.387Z,4.33
2022-11-18T16:31:52.365Z,3.80
2022-11-18T16:34:28.250Z,4.30
2022-11-18T16:37:01.302Z,4.30
2022-11-18T16:39:29.444Z,4.07
2022-11-18T16:42:08.377Z,4.40
2022-11-18T16:44:37.270Z,4.50
2022-11-18T16:47:12.401Z,3.93
2022-11-18T16:49:42.013Z,4.33
2022-11-18T16:52:09.366Z,3.77
2022-11-18T16:54:41.075Z,4.23
2022-11-18T16:57:11.928Z,4.20
2022-11-18T16:59:39.029Z,3.87
2022-11-18T17:02:07.081Z,4.37
2022-11-18T17:04:36.286Z,4.90
2022-11-18T17:07:03.646Z,5.30
2022-11-18T17:09:30.989Z,4.63
2022-11-18T17:12:01.176Z,5.17
2022-11-18T17:14:29.963Z,6.07
2022-11-18T17:16:57.714Z,5.80
2022-11-18T17:19:28.765Z,5.70
2022-11-18T17:21:55.955Z,5.50
2022-11-18T17:24:24.276Z,5.87
2022-11-18T17:26:52.468Z,6.63
2022-11-18T17:29:20.032Z,6.10
2022-11-18T17:31:47.447Z,5.93
2022-11-18T17:34:15.236Z,6.17
2022-11-18T17:36:42.894Z,5.83
2022-11-18T17:39:12.076Z,5.63
2022-11-18T17:41:57.851Z,6.10
2022-11-18T17:44:25.370Z,6.37
2022-11-18T17:46:52.496Z,6.47
2022-11-18T17:49:22.319Z,6.70
2022-11-18T17:51:51.473Z,7.00
2022-11-18T17:54:20.298Z,7.20
2022-11-18T17:56:48.314Z,6.70
2022-11-18T17:59:17.260Z,5.90
2022-11-18T18:01:46.030Z,6.50
2022-11-18T18:04:20.501Z,7.73
2022-11-18T18:06:51.234Z,8.03
2022-11-18T18:09:29.905Z,8.37
2022-11-18T18:11:59.616Z,7.03
2022-11-18T18:14:26.794Z,7.03
2022-11-18T18:16:53.983Z,7.27
2022-11-18T18:19:23.194Z,7.10
2022-11-18T18:21:50.674Z,7.60
2022-11-18T18:24:20.232Z,7.33
2022-11-18T18:26:47.897Z,7.63
2022-11-18T18:29:15.015Z,8.27
2022-11-18T18:31:42.154Z,7.50
2022-11-18T18:34:09.242Z,8.90
2022-11-18T18:36:36.266Z,8.63
2022-11-18T18:39:03.512Z,10.83
2022-11-18T18:41:32.354Z,11.73
2022-11-18T18:44:00.629Z,9.83
2022-11-18T18:46:29.246Z,9.07
2022-11-18T18:48:59.414Z,8.13
2022-11-18T18:51:28.720Z,7.50
2022-11-18T18:53:57.618Z,7.40
2022-11-18T18:56:25.453Z,7.63
2022-11-18T18:58:52.486Z,7.63
2022-11-18T19:01:20.654Z,7.90
2022-11-18T19:03:48.309Z,7.30
2022-11-18T19:09:14.594Z,7.93
2022-11-18T19:12:17.266Z,7.97
2022-11-18T19:14:44.462Z,7.83
2022-11-18T19:17:12.862Z,8.20
2022-11-18T19:20:00.971Z,7.60
2022-11-18T19:22:33.155Z,8.00
2022-11-18T19:25:01.590Z,8.00
2022-11-18T19:27:30.101Z,8.23
2022-11-18T19:29:57.117Z,8.43
2022-11-18T19:32:24.159Z,8.53
2022-11-18T19:34:51.148Z,8.30
2022-11-18T19:37:18.274Z,8.47
2022-11-18T19:39:45.627Z,8.00
2022-11-18T19:42:12.861Z,8.53
2022-11-18T19:44:39.964Z,8.67
2022-11-18T19:47:07.133Z,8.03
2022-11-18T19:49:34.341Z,7.90
2022-11-18T19:52:01.797Z,7.83
2022-11-18T19:54:28.954Z,8.33
2022-11-18T19:56:56.054Z,7.60
2022-11-18T19:59:23.276Z,7.83
2022-11-18T20:01:50.296Z,8.53
2022-11-18T20:04:17.505Z,9.40
2022-11-18T20:06:45.649Z,9.33
2022-11-18T20:09:13.341Z,10.50
2022-11-18T20:11:40.885Z,10.70
2022-11-18T20:14:09.761Z,11.07
2022-11-18T20:16:38.212Z,10.90
2022-11-18T20:19:10.836Z,11.07
2022-11-18T20:21:39.216Z,11.27
2022-11-18T20:24:07.906Z,12.40
2022-11-18T20:26:38.536Z,11.13
2022-11-18T20:29:07.664Z,11.63
2022-11-18T20:31:35.816Z,12.27
2022-11-18T20:34:03.899Z,12.03
2022-11-18T20:36:36.427Z,11.50
2022-11-18T20:39:08.370Z,12.07
2022-11-18T20:41:36.483Z,11.93
2022-11-18T20:44:04.449Z,12.37
2022-11-18T20:46:31.808Z,12.47
2022-11-18T20:48:58.781Z,13.60
2022-11-18T20:51:28.162Z,12.93
2022-11-18T20:53:57.323Z,13.40
2022-11-18T20:56:27.252Z,13.60
2022-11-18T20:58:56.911Z,12.37
2022-11-18T21:01:27.544Z,13.53
2022-11-18T21:03:58.288Z,13.40
2022-11-18T21:06:29.524Z,14.30
2022-11-18T21:09:02.754Z,14.17
2022-11-18T21:11:30.762Z,13.53
2022-11-18T21:14:22.945Z,14.03
2022-11-18T21:16:52.097Z,14.03
2022-11-18T21:19:19.695Z,14.67
2022-11-18T21:21:52.577Z,14.87
2022-11-18T21:24:23.244Z,14.20
2022-11-18T21:26:54.663Z,14.40
2022-11-18T21:29:23.662Z,16.20
2022-11-18T21:31:51.550Z,14.87
2022-11-18T21:34:19.545Z,15.00
2022-11-18T21:36:50.339Z,15.07
2022-11-18T21:39:21.954Z,14.63
2022-11-18T21:41:54.901Z,15.57
2022-11-18T21:44:22.689Z,15.33
2022-11-18T21:46:49.730Z,14.67
2022-11-18T21:49:17.390Z,16.20
2022-11-18T21:51:45.006Z,14.90
2022-11-18T21:54:12.982Z,14.07
2022-11-18T21:56:40.136Z,15.77
2022-11-18T21:59:07.744Z,15.70
2022-11-18T22:01:35.249Z,16.17
2022-11-18T22:04:05.403Z,15.67
2022-11-18T22:06:34.628Z,15.40
2022-11-18T22:09:04.226Z,12.00
2022-11-18T22:11:31.631Z,9.53
2022-11-18T22:13:58.731Z,7.40
2022-11-18T22:16:27.380Z,7.07
2022-11-18T22:19:03.692Z,6.20
2022-11-18T22:21:32.174Z,4.97
2022-11-18T22:24:00.920Z,4.27
2022-11-18T22:26:28.841Z,4.37
2022-11-18T22:28:57.959Z,3.60
2022-11-18T22:31:28.063Z,3.70
2022-11-18T22:33:57.042Z,3.87
2022-11-18T22:36:26.529Z,4.17
2022-11-18T22:38:54.786Z,5.10
2022-11-18T22:41:43.593Z,5.17
2022-11-18T22:44:13.778Z,6.07
2022-11-18T22:46:43.340Z,6.87
2022-11-18T22:49:12.006Z,7.83
2022-11-18T22:51:40.357Z,7.70
2022-11-18T22:56:56.214Z,8.27
2022-11-18T22:59:24.157Z,8.73
2022-11-18T23:01:54.391Z,9.20
2022-11-18T23:04:21.773Z,9.80
2022-11-18T23:06:49.785Z,11.17
2022-11-18T23:09:17.370Z,12.20
2022-11-18T23:12:03.517Z,10.97
2022-11-18T23:14:30.818Z,11.47
2022-11-18T23:16:57.887Z,10.63
2022-11-18T23:19:24.925Z,11.87
2022-11-18T23:21:52.118Z,11.87
2022-11-18T23:24:19.935Z,12.73
2022-11-18T23:26:47.359Z,13.30
2022-11-18T23:29:15.886Z,13.33
2022-11-18T23:31:44.985Z,12.80
2022-11-18T23:34:14.080Z,14.70
2022-11-18T23:36:41.774Z,14.93
2022-11-18T23:39:09.023Z,17.23
2022-11-18T23:41:36.527Z,17.60
2022-11-18T23:44:05.317Z,18.80
2022-11-18T23:46:33.177Z,18.37
2022-11-18T23:49:00.505Z,22.07
2022-11-18T23:51:27.455Z,22.10
2022-11-18T23:53:57.243Z,23.57
2022-11-18T23:56:28.277Z,23.17
2022-11-18T23:58:56.713Z,23.57
